createdAt,value
2019-04-21T00:01:49.005Z,98729.78
2019-04-21T00:06:11.931Z,98740.97
2019-04-21T00:10:18.489Z,98736.63
2019-04-21T00:14:23.671Z,98727.09
2019-04-21T00:18:31.068Z,98724.77
2019-04-21T00:22:50.310Z,98721.63
2019-04-21T00:27:04.092Z,98716.38
2019-04-21T00:31:12.702Z,98712.08
2019-04-21T00:35:07.617Z,98708.31
2019-04-21T00:39:36.471Z,98708.56
2019-04-21T00:43:32.964Z,98705.06
2019-04-21T00:47:43.133Z,98700.19
2019-04-21T00:52:07.093Z,98697.86
2019-04-21T00:56:15.666Z,98696.70
2019-04-21T01:00:22.247Z,98697.64
2019-04-21T01:04:30.672Z,98704.89
2019-04-21T01:08:39.990Z,98701.41
2019-04-21T01:12:41.949Z,98703.98
2019-04-21T01:16:55.997Z,98701.55
2019-04-21T01:20:37.648Z,98694.81
2019-04-21T01:24:48.300Z,98701.06
2019-04-21T01:29:06.732Z,98701.17
2019-04-21T01:33:21.958Z,98699.89
2019-04-21T01:37:34.166Z,98694.88
2019-04-21T01:41:52.539Z,98689.98
2019-04-21T01:45:37.132Z,98689.75
2019-04-21T01:49:37.067Z,98695.56
2019-04-21T01:54:12.497Z,98689.91
2019-04-21T01:58:03.208Z,98685.77
2019-04-21T02:02:19.337Z,98686.61
2019-04-21T02:06:27.470Z,98680.90
2019-04-21T02:10:39.959Z,98677.22
2019-04-21T02:14:50.310Z,98674.81
2019-04-21T02:18:49.957Z,98668.17
2019-04-21T02:23:12.910Z,98660.69
2019-04-21T02:27:07.638Z,98663.51
2019-04-21T02:35:52.738Z,98652.88
2019-04-21T02:39:40.746Z,98650.16
2019-04-21T02:52:01.999Z,98636.83
2019-04-21T02:56:07.818Z,98632.38
2019-04-21T03:00:26.171Z,98627.57
2019-04-21T03:04:28.189Z,98620.42
2019-04-21T03:12:39.178Z,98607.63
2019-04-21T03:16:39.838Z,98595.75
2019-04-21T03:29:20.226Z,98585.40
2019-04-21T03:34:05.609Z,98580.86
2019-04-21T03:37:37.167Z,98579.18
2019-04-21T03:41:39.978Z,98577.33
2019-04-21T03:49:59.945Z,98567.37
2019-04-21T03:53:53.459Z,98566.04
2019-04-21T04:02:38.076Z,98567.26
2019-04-21T04:06:53.711Z,98566.85
2019-04-21T04:10:51.950Z,98570.77
2019-04-21T04:14:50.161Z,98572.98
2019-04-21T04:18:57.841Z,98582.42
2019-04-21T04:23:08.081Z,98576.52
2019-04-21T04:27:33.579Z,98574.56
2019-04-21T04:31:30.332Z,98572.78
2019-04-21T04:35:45.805Z,98575.03
2019-04-21T04:39:57.086Z,98582.57
2019-04-21T04:47:59.914Z,98575.98
2019-04-21T04:52:31.225Z,98569.75
2019-04-21T04:56:16.367Z,98573.87
2019-04-21T05:00:28.805Z,98571.60
2019-04-21T05:04:37.440Z,98568.52
2019-04-21T05:08:49.274Z,98573.82
2019-04-21T05:12:38.998Z,98578.64
2019-04-21T05:21:06.771Z,98571.58
2019-04-21T05:24:51.034Z,98567.79
2019-04-21T05:28:52.667Z,98570.64
2019-04-21T05:33:34.449Z,98559.11
2019-04-21T05:37:38.347Z,98556.66
2019-04-21T05:41:36.242Z,98553.20
2019-04-21T05:45:52.649Z,98553.84
2019-04-21T05:50:04.010Z,98563.00
2019-04-21T05:54:22.981Z,98558.72
2019-04-21T05:58:23.434Z,98557.73
2019-04-21T06:06:39.447Z,98559.65
2019-04-21T06:10:49.064Z,98562.19
2019-04-21T06:14:55.961Z,98555.46
2019-04-21T06:19:04.929Z,98557.84
2019-04-21T06:23:13.570Z,98556.67
2019-04-21T06:27:15.102Z,98551.94
2019-04-21T06:37:21.508Z,98549.83
2019-04-21T06:41:13.533Z,98542.16
2019-04-21T06:45:18.863Z,98539.30
2019-04-21T06:49:25.053Z,98541.74
2019-04-21T06:57:44.379Z,98529.69
2019-04-21T07:02:01.209Z,98530.02
2019-04-21T07:06:06.200Z,98532.12
2019-04-21T07:10:10.797Z,98535.83
2019-04-21T07:14:25.631Z,98533.89
2019-04-21T07:18:23.003Z,98530.48
2019-04-21T07:22:31.906Z,98525.47
2019-04-21T07:26:36.316Z,98531.38
2019-04-21T07:30:43.651Z,98536.88
2019-04-21T07:34:52.138Z,98534.06
2019-04-21T07:38:57.255Z,98536.35
2019-04-21T07:43:03.870Z,98539.58
2019-04-21T07:47:13.433Z,98524.52
2019-04-21T07:51:31.594Z,98525.27
2019-04-21T08:00:04.101Z,98518.50
2019-04-21T08:03:51.981Z,98518.36
2019-04-21T08:07:57.162Z,98517.86
2019-04-21T08:12:04.138Z,98515.95
2019-04-21T08:16:22.472Z,98514.09
2019-04-21T08:20:18.705Z,98513.96
2019-04-21T08:24:28.097Z,98510.48
2019-04-21T08:28:43.791Z,98508.84
2019-04-21T08:32:52.777Z,98504.72
2019-04-21T08:36:52.781Z,98501.05
2019-04-21T08:41:01.999Z,98496.67
2019-04-21T08:45:11.107Z,98488.44
2019-04-21T08:49:15.529Z,98489.61
2019-04-21T08:53:27.800Z,98484.30
2019-04-21T08:57:44.202Z,98483.38
2019-04-21T09:01:44.214Z,98484.16
2019-04-21T09:05:52.622Z,98475.19
2019-04-21T09:09:57.439Z,98480.42
2019-04-21T09:14:02.327Z,98473.66
2019-04-21T09:18:10.223Z,98471.16
2019-04-21T09:22:20.314Z,98467.06
2019-04-21T09:26:28.280Z,98456.69
2019-04-21T09:30:17.452Z,98456.58
2019-04-21T09:34:30.505Z,98436.60
2019-04-21T09:38:37.095Z,98440.11
2019-04-21T09:42:44.337Z,98437.72
2019-04-21T09:46:50.487Z,98431.47
2019-04-21T09:50:55.044Z,98426.17
2019-04-21T09:55:06.960Z,98427.10
2019-04-21T09:59:18.036Z,98425.70
2019-04-21T10:03:17.990Z,98415.23
2019-04-21T10:07:31.660Z,98395.13
2019-04-21T10:11:31.773Z,98401.70
2019-04-21T10:15:37.708Z,98392.97
2019-04-21T10:19:44.141Z,98379.57
2019-04-21T10:23:50.084Z,98376.78
2019-04-21T10:27:56.960Z,98376.70
2019-04-21T10:32:03.598Z,98364.77
2019-04-21T10:36:09.360Z,98355.70
2019-04-21T10:40:15.934Z,98354.55
2019-04-21T10:44:23.049Z,98342.17
2019-04-21T10:48:31.703Z,98339.30
2019-04-21T10:52:55.356Z,98337.33
2019-04-21T10:57:04.180Z,98324.52
2019-04-21T11:01:14.503Z,98330.91
2019-04-21T11:05:20.836Z,98317.45
2019-04-21T11:09:26.609Z,98309.60
2019-04-21T11:13:32.694Z,98298.30
2019-04-21T11:17:40.634Z,98296.40
2019-04-21T11:21:46.981Z,98289.06
2019-04-21T11:25:53.922Z,98276.70
2019-04-21T11:29:59.855Z,98285.08
2019-04-21T11:34:07.145Z,98279.27
2019-04-21T11:38:22.410Z,98277.84
2019-04-21T11:42:30.675Z,98270.36
2019-04-21T11:46:36.434Z,98265.31
2019-04-21T11:50:43.331Z,98259.47
2019-04-21T11:54:49.135Z,98252.75
2019-04-21T11:58:54.845Z,98251.34
2019-04-21T12:03:01.601Z,98243.70
2019-04-21T12:07:07.516Z,98241.09
2019-04-21T12:11:13.719Z,98246.58
2019-04-21T12:15:20.764Z,98233.31
2019-04-21T12:19:27.072Z,98232.09
2019-04-21T12:23:34.270Z,98235.17
2019-04-21T12:27:41.600Z,98228.95
2019-04-21T12:32:05.628Z,98226.12
2019-04-21T12:36:11.707Z,98215.80
2019-04-21T12:40:18.706Z,98214.39
2019-04-21T12:44:24.649Z,98212.89
2019-04-21T12:48:31.678Z,98199.45
2019-04-21T12:52:37.902Z,98189.58
2019-04-21T12:56:43.579Z,98183.67
2019-04-21T13:00:49.759Z,98175.58
2019-04-21T13:05:07.460Z,98171.81
2019-04-21T13:09:17.988Z,98160.69
2019-04-21T13:13:21.883Z,98154.26
2019-04-21T13:17:27.844Z,98152.30
2019-04-21T13:21:34.208Z,98150.80
2019-04-21T13:25:41.546Z,98145.20
2019-04-21T13:29:48.287Z,98142.24
2019-04-21T13:33:53.988Z,98135.28
2019-04-21T13:38:00.575Z,98120.23
2019-04-21T13:42:17.426Z,98116.24
2019-04-21T13:46:17.593Z,98115.09
2019-04-21T13:50:23.729Z,98108.17
2019-04-21T13:54:29.690Z,98093.44
2019-04-21T13:58:35.435Z,98092.66
2019-04-21T14:02:42.558Z,98079.84
2019-04-21T14:06:49.979Z,98076.01
2019-04-21T14:10:57.469Z,98069.77
2019-04-21T14:15:08.341Z,98073.31
2019-04-21T14:19:15.331Z,98052.34
2019-04-21T14:23:30.804Z,98057.11
2019-04-21T14:27:28.507Z,98049.07
2019-04-21T14:31:34.659Z,98046.75
2019-04-21T14:35:41.059Z,98032.28
2019-04-21T14:39:52.752Z,98042.58
2019-04-21T14:43:55.130Z,98035.68
2019-04-21T14:48:19.077Z,98034.63
2019-04-21T14:52:26.569Z,98030.03
2019-04-21T14:56:33.464Z,98023.58
2019-04-21T15:00:57.931Z,98021.77
2019-04-21T15:05:04.206Z,98011.45
2019-04-21T15:09:11.169Z,98015.34
2019-04-21T15:13:17.359Z,98017.19
2019-04-21T15:17:24.954Z,98004.25
2019-04-21T15:21:31.258Z,98003.34
2019-04-21T15:25:38.229Z,98000.50
2019-04-21T15:29:44.873Z,98000.84
2019-04-21T15:33:50.660Z,97997.41
2019-04-21T15:37:57.919Z,97991.91
2019-04-21T15:42:03.810Z,97991.98
2019-04-21T15:46:10.977Z,97982.66
2019-04-21T15:50:19.653Z,97987.98
2019-04-21T15:54:26.800Z,97987.98
2019-04-21T15:58:37.038Z,97980.53
2019-04-21T16:02:44.669Z,97972.95
2019-04-21T16:06:50.398Z,97971.63
2019-04-21T16:11:00.127Z,97964.17
2019-04-21T16:15:05.105Z,97959.05
2019-04-21T16:19:12.139Z,97960.77
2019-04-21T16:23:18.387Z,97960.37
2019-04-21T16:27:25.674Z,97955.31
2019-04-21T16:31:32.241Z,97950.67
2019-04-21T16:35:44.069Z,97951.56
2019-04-21T16:39:49.782Z,97943.27
2019-04-21T16:43:55.654Z,97942.17
2019-04-21T16:48:01.427Z,97941.30
2019-04-21T16:52:10.026Z,97935.41
2019-04-21T16:56:17.400Z,97937.64
2019-04-21T17:00:36.781Z,97932.43
2019-04-21T17:04:34.127Z,97931.27
2019-04-21T17:08:40.916Z,97921.55
2019-04-21T17:12:47.980Z,97922.13
2019-04-21T17:17:17.851Z,97922.39
2019-04-21T17:21:02.946Z,97918.02
2019-04-21T17:25:08.953Z,97913.80
2019-04-21T17:29:14.745Z,97920.20
2019-04-21T17:33:26.369Z,97911.28
2019-04-21T17:37:29.226Z,97910.53
2019-04-21T17:41:42.451Z,97913.72
2019-04-21T17:45:44.885Z,97915.19
2019-04-21T17:49:53.567Z,97915.16
2019-04-21T17:54:13.756Z,97909.02
2019-04-21T17:58:27.875Z,97910.77
2019-04-21T18:02:43.411Z,97916.65
2019-04-21T18:07:01.808Z,97915.63
2019-04-21T18:11:05.763Z,97919.06
2019-04-21T18:15:21.616Z,97917.53
2019-04-21T18:19:11.394Z,97914.13
2019-04-21T18:23:34.880Z,97915.70
2019-04-21T18:27:34.484Z,97917.48
2019-04-21T18:31:45.589Z,97910.88
2019-04-21T18:35:55.143Z,97910.85
2019-04-21T18:40:09.634Z,97912.13
2019-04-21T18:44:33.258Z,97925.23
2019-04-21T18:48:27.426Z,97919.04
2019-04-21T18:52:45.629Z,97924.47
2019-04-21T18:56:49.898Z,97926.57
2019-04-21T19:00:45.889Z,97935.52
2019-04-21T19:04:54.405Z,97934.33
2019-04-21T19:09:18.712Z,97931.33
2019-04-21T19:13:41.929Z,97934.78
2019-04-21T19:21:41.674Z,97933.59
2019-04-21T19:26:05.265Z,97929.01
2019-04-21T19:30:05.647Z,97934.25
2019-04-21T19:33:57.365Z,97925.61
2019-04-21T19:37:59.181Z,97929.41
2019-04-21T19:42:14.454Z,97931.77
2019-04-21T19:46:22.444Z,97927.42
2019-04-21T19:50:36.452Z,97933.47
2019-04-21T19:54:32.015Z,97930.20
2019-04-21T19:58:33.881Z,97929.38
2019-04-21T20:02:40.222Z,97927.23
2019-04-21T20:06:58.442Z,97928.05
2019-04-21T20:11:18.273Z,97922.27
2019-04-21T20:15:28.451Z,97925.26
2019-04-21T20:19:12.008Z,97913.05
2019-04-21T20:23:22.815Z,97914.62
2019-04-21T20:27:36.207Z,97914.30
2019-04-21T20:31:50.607Z,97909.89
2019-04-21T20:36:16.934Z,97904.03
2019-04-21T20:39:54.994Z,97906.51
2019-04-21T20:44:13.294Z,97903.48
2019-04-21T20:48:13.976Z,97901.45
2019-04-21T20:52:33.617Z,97901.33
2019-04-21T20:56:37.488Z,97896.98
2019-04-21T21:00:54.717Z,97897.66
2019-04-21T21:04:43.466Z,97898.13
2019-04-21T21:08:57.279Z,97892.43
2019-04-21T21:13:14.506Z,97898.88
2019-04-21T21:17:25.047Z,97890.95
2019-04-21T21:21:20.666Z,97892.25
2019-04-21T21:25:40.059Z,97887.52
2019-04-21T21:29:41.964Z,97883.09
2019-04-21T21:33:59.063Z,97877.59
2019-04-21T21:37:55.409Z,97875.73
2019-04-21T21:41:53.069Z,97876.91
2019-04-21T21:45:59.525Z,97872.47
2019-04-21T21:50:11.650Z,97873.39
2019-04-21T21:54:11.697Z,97869.52
2019-04-21T21:58:25.071Z,97878.88
2019-04-21T22:02:34.917Z,97878.02
2019-04-21T22:06:43.379Z,97880.22
2019-04-21T22:10:41.207Z,97874.71
2019-04-21T22:14:51.785Z,97872.33
2019-04-21T22:19:13.269Z,97861.98
2019-04-21T22:23:11.294Z,97864.48
2019-04-21T22:27:10.354Z,97860.72
2019-04-21T22:31:22.404Z,97855.29
2019-04-21T22:35:31.640Z,97860.30
2019-04-21T22:39:48.043Z,97856.95
2019-04-21T22:43:43.892Z,97864.19
2019-04-21T22:47:47.945Z,97859.23
2019-04-21T22:51:53.962Z,97856.63
2019-04-21T22:56:10.952Z,97858.09
2019-04-21T23:00:14.599Z,97854.53
2019-04-21T23:04:20.979Z,97854.84
2019-04-21T23:08:34.382Z,97844.46
2019-04-21T23:12:38.190Z,97848.05
2019-04-21T23:16:45.374Z,97846.90
2019-04-21T23:21:08.828Z,97838.22
2019-04-21T23:25:13.616Z,97838.15
2019-04-21T23:29:25.845Z,97828.70
2019-04-21T23:33:15.509Z,97829.13
2019-04-21T23:37:23.373Z,97825.77
2019-04-21T23:41:33.675Z,97819.83
2019-04-21T23:45:37.760Z,97822.83
2019-04-21T23:49:50.982Z,97823.38
2019-04-21T23:53:49.080Z,97820.31
2019-04-21T23:58:04.962Z,97814.92
